PWSweather.com
Personal Weather Stations
Station Observations
KPAHARRI12
Harrisville, PA 16038

Harrisville, PA 16038

Lat: 41.1155556, Lon: -79.9838889

Elevation: 1260

Station Type: WS-1080

High Low Average
Temperature 72.9°F22.7°C 49.8°F9.9°C 58.3°F14.6°C
Dew Point 60.7°F15.9°C 49.6°F9.8°C 53.2°F11.8°C
Winds 3.1 mph 5.0 kmh Calm Calm Calm SSECalm SSE
Wind Gusts 6.9 mph11.1 kmh -- 2.0 mph3.2 kmh
Humidity 99% 52% 85%
Pressure 30.21 in1023.0 mb 30.10 in1019.3 mb -
Precipitation 0.07 in1.8 mm - -
Hour Temp Dew Point Humidity Winds Wind Gusts Pressure Precip Precip Rate Daily Precip Total
12:09 AM 53.1°F11.7°C 52.8°F11.6°C 99% Calm Calm -- 30.21 in1023.0 mb 0.00 in0.0 mm 0.00 in/hr0.0 mm/hr 0.00 in0.0 mm
12:24 AM 53.1°F11.7°C 52.8°F11.6°C 99% Calm Calm -- 30.22 in1023.4 mb 0.00 in0.0 mm 0.00 in/hr0.0 mm/hr 0.00 in0.0 mm
12:40 AM 52.7°F11.5°C 52.4°F11.3°C 99% Calm Calm -- 30.21 in1023.0 mb 0.00 in0.0 mm 0.00 in/hr0.0 mm/hr 0.00 in0.0 mm
12:55 AM 52.5°F11.4°C 52.2°F11.2°C 99% Calm Calm -- 30.21 in1023.0 mb 0.00 in0.0 mm 0.00 in/hr0.0 mm/hr 0.00 in0.0 mm
01:10 AM 52.3°F11.3°C 52.1°F11.2°C 99% Calm Calm -- 30.21 in1023.0 mb 0.00 in0.0 mm 0.00 in/hr0.0 mm/hr 0.00 in0.0 mm
01:25 AM 51.8°F11.0°C 51.5°F10.8°C 99% Calm Calm -- 30.21 in1023.0 mb 0.00 in0.0 mm 0.00 in/hr0.0 mm/hr 0.00 in0.0 mm
01:40 AM 51.6°F10.9°C 51.3°F10.7°C 99% Calm Calm -- 30.21 in1023.0 mb 0.00 in0.0 mm 0.00 in/hr0.0 mm/hr 0.00 in0.0 mm
01:55 AM 51.3°F10.7°C 51.0°F10.6°C 99% Calm Calm -- 30.20 in1022.7 mb 0.00 in0.0 mm 0.00 in/hr0.0 mm/hr 0.00 in0.0 mm
02:10 AM 51.3°F10.7°C 51.0°F10.6°C 99% Calm Calm -- 30.20 in1022.7 mb 0.00 in0.0 mm 0.00 in/hr0.0 mm/hr 0.00 in0.0 mm
02:25 AM 51.6°F10.9°C 51.3°F10.7°C 99% Calm Calm -- 30.20 in1022.7 mb 0.00 in0.0 mm 0.00 in/hr0.0 mm/hr 0.00 in0.0 mm
02:40 AM 52.0°F11.1°C 51.7°F10.9°C 99% Calm Calm -- 30.19 in1022.4 mb 0.00 in0.0 mm 0.00 in/hr0.0 mm/hr 0.00 in0.0 mm
02:55 AM 52.3°F11.3°C 52.1°F11.2°C 99% Calm Calm -- 30.19 in1022.4 mb 0.00 in0.0 mm 0.00 in/hr0.0 mm/hr 0.00 in0.0 mm
03:10 AM 52.5°F11.4°C 52.2°F11.2°C 99% Calm Calm -- 30.19 in1022.4 mb 0.00 in0.0 mm 0.00 in/hr0.0 mm/hr 0.00 in0.0 mm
03:25 AM 52.5°F11.4°C 52.2°F11.2°C 99% Calm Calm -- 30.19 in1022.4 mb 0.00 in0.0 mm 0.00 in/hr0.0 mm/hr 0.00 in0.0 mm
04:01 AM 51.3°F10.7°C 51.0°F10.6°C 99% Calm Calm 0.7 mph1.1 kmh 30.19 in1022.4 mb 0.00 in0.0 mm 0.00 in/hr0.0 mm/hr 0.00 in0.0 mm
04:16 AM 51.1°F10.6°C 50.8°F10.4°C 99% Calm Calm -- 30.18 in1022.0 mb 0.00 in0.0 mm 0.00 in/hr0.0 mm/hr 0.00 in0.0 mm
04:31 AM 51.3°F10.7°C 51.0°F10.6°C 99% Calm Calm 0.7 mph1.1 kmh 30.18 in1022.0 mb 0.00 in0.0 mm 0.00 in/hr0.0 mm/hr 0.00 in0.0 mm
04:46 AM 50.9°F10.5°C 50.6°F10.3°C 99% Calm Calm 0.7 mph1.1 kmh 30.18 in1022.0 mb 0.00 in0.0 mm 0.00 in/hr0.0 mm/hr 0.00 in0.0 mm
05:01 AM 50.2°F10.1°C 49.9°F9.9°C 99% Calm Calm 0.7 mph1.1 kmh 30.19 in1022.4 mb 0.00 in0.0 mm 0.00 in/hr0.0 mm/hr 0.00 in0.0 mm
05:16 AM 49.8°F9.9°C 49.6°F9.8°C 99% Calm Calm -- 30.19 in1022.4 mb 0.00 in0.0 mm 0.00 in/hr0.0 mm/hr 0.00 in0.0 mm
05:31 AM 50.2°F10.1°C 49.9°F9.9°C 99% Calm Calm -- 30.20 in1022.7 mb 0.00 in0.0 mm 0.00 in/hr0.0 mm/hr 0.00 in0.0 mm
05:46 AM 50.4°F10.2°C 50.1°F10.1°C 99% Calm Calm -- 30.20 in1022.7 mb 0.00 in0.0 mm 0.00 in/hr0.0 mm/hr 0.00 in0.0 mm
06:01 AM 50.5°F10.3°C 50.3°F10.2°C 99% Calm Calm -- 30.20 in1022.7 mb 0.00 in0.0 mm 0.00 in/hr0.0 mm/hr 0.00 in0.0 mm
06:16 AM 50.4°F10.2°C 50.1°F10.1°C 99% Calm Calm -- 30.20 in1022.7 mb 0.00 in0.0 mm 0.00 in/hr0.0 mm/hr 0.00 in0.0 mm
06:31 AM 50.4°F10.2°C 50.1°F10.1°C 99% Calm Calm -- 30.20 in1022.7 mb 0.00 in0.0 mm 0.00 in/hr0.0 mm/hr 0.00 in0.0 mm
06:46 AM 50.2°F10.1°C 49.9°F9.9°C 99% Calm Calm -- 30.20 in1022.7 mb 0.00 in0.0 mm 0.00 in/hr0.0 mm/hr 0.00 in0.0 mm
07:01 AM 49.8°F9.9°C 49.6°F9.8°C 99% Calm Calm -- 30.21 in1023.0 mb 0.00 in0.0 mm 0.00 in/hr0.0 mm/hr 0.00 in0.0 mm
07:16 AM 50.2°F10.1°C 49.9°F9.9°C 99% Calm Calm -- 30.21 in1023.0 mb 0.00 in0.0 mm 0.00 in/hr0.0 mm/hr 0.00 in0.0 mm
07:31 AM 50.5°F10.3°C 50.3°F10.2°C 99% Calm Calm -- 30.21 in1023.0 mb 0.00 in0.0 mm 0.00 in/hr0.0 mm/hr 0.00 in0.0 mm
07:46 AM 51.6°F10.9°C 51.3°F10.7°C 99% Calm Calm -- 30.21 in1023.0 mb 0.00 in0.0 mm 0.00 in/hr0.0 mm/hr 0.00 in0.0 mm
08:01 AM 52.9°F11.6°C 52.6°F11.4°C 99% Calm Calm 0.7 mph1.1 kmh 30.21 in1023.0 mb 0.00 in0.0 mm 0.00 in/hr0.0 mm/hr 0.00 in0.0 mm
08:16 AM 54.7°F12.6°C 54.4°F12.4°C 99% Calm Calm 0.7 mph1.1 kmh 30.21 in1023.0 mb 0.00 in0.0 mm 0.00 in/hr0.0 mm/hr 0.00 in0.0 mm
08:31 AM 55.9°F13.3°C 55.7°F13.2°C 99% Calm Calm -- 30.20 in1022.7 mb 0.00 in0.0 mm 0.00 in/hr0.0 mm/hr 0.00 in0.0 mm
08:46 AM 57.0°F13.9°C 56.7°F13.7°C 99% Calm Calm 0.7 mph1.1 kmh 30.20 in1022.7 mb 0.00 in0.0 mm 0.00 in/hr0.0 mm/hr 0.00 in0.0 mm
09:01 AM 59.2°F15.1°C 58.9°F14.9°C 99% Calm Calm 0.7 mph1.1 kmh 30.20 in1022.7 mb 0.00 in0.0 mm 0.00 in/hr0.0 mm/hr 0.00 in0.0 mm
09:16 AM 60.3°F15.7°C 60.0°F15.6°C 99% Calm Calm -- 30.20 in1022.7 mb 0.00 in0.0 mm 0.00 in/hr0.0 mm/hr 0.00 in0.0 mm
09:31 AM 61.0°F16.1°C 60.7°F15.9°C 99% Calm Calm 0.7 mph1.1 kmh 30.19 in1022.4 mb 0.00 in0.0 mm 0.00 in/hr0.0 mm/hr 0.00 in0.0 mm
09:46 AM 62.2°F16.8°C 58.3°F14.6°C 87% Calm Calm 1.6 mph2.6 kmh 30.20 in1022.7 mb 0.00 in0.0 mm 0.00 in/hr0.0 mm/hr 0.00 in0.0 mm
10:01 AM 63.3°F17.4°C 56.9°F13.8°C 80% Calm Calm 1.6 mph2.6 kmh 30.19 in1022.4 mb 0.00 in0.0 mm 0.00 in/hr0.0 mm/hr 0.00 in0.0 mm
10:16 AM 64.2°F17.9°C 54.0°F12.2°C 70% Calm Calm 2.2 mph3.5 kmh 30.19 in1022.4 mb 0.00 in0.0 mm 0.00 in/hr0.0 mm/hr 0.00 in0.0 mm
10:31 AM 64.8°F18.2°C 56.9°F13.8°C 76% Calm Calm 1.6 mph2.6 kmh 30.19 in1022.4 mb 0.00 in0.0 mm 0.00 in/hr0.0 mm/hr 0.00 in0.0 mm
10:46 AM 66.7°F19.3°C 56.8°F13.8°C 71% Calm Calm 2.2 mph3.5 kmh 30.19 in1022.4 mb 0.00 in0.0 mm 0.00 in/hr0.0 mm/hr 0.00 in0.0 mm
11:01 AM 67.1°F19.5°C 54.1°F12.3°C 64% Calm Calm 2.2 mph3.5 kmh 30.19 in1022.4 mb 0.00 in0.0 mm 0.00 in/hr0.0 mm/hr 0.00 in0.0 mm
11:16 AM 68.7°F20.4°C 56.1°F13.4°C 65% Calm Calm 2.2 mph3.5 kmh 30.19 in1022.4 mb 0.00 in0.0 mm 0.00 in/hr0.0 mm/hr 0.00 in0.0 mm
11:31 AM 70.3°F21.3°C 55.3°F12.9°C 60% 0.7 mph NW1.1 kmh NW 3.1 mph5.0 kmh 30.18 in1022.0 mb 0.00 in0.0 mm 0.00 in/hr0.0 mm/hr 0.00 in0.0 mm
11:46 AM 69.1°F20.6°C 55.1°F12.8°C 62% Calm Calm 3.1 mph5.0 kmh 30.18 in1022.0 mb 0.00 in0.0 mm 0.00 in/hr0.0 mm/hr 0.00 in0.0 mm
12:01 PM 66.4°F19.1°C 53.9°F12.2°C 65% Calm Calm 2.2 mph3.5 kmh 30.18 in1022.0 mb 0.00 in0.0 mm 0.00 in/hr0.0 mm/hr 0.00 in0.0 mm
12:16 PM 63.1°F17.3°C 53.8°F12.1°C 72% Calm Calm 0.7 mph1.1 kmh 30.18 in1022.0 mb 0.00 in0.0 mm 0.00 in/hr0.0 mm/hr 0.00 in0.0 mm
12:31 PM 61.9°F16.6°C 53.3°F11.8°C 74% Calm Calm 1.6 mph2.6 kmh 30.17 in1021.7 mb 0.00 in0.0 mm 0.00 in/hr0.0 mm/hr 0.00 in0.0 mm
12:46 PM 61.7°F16.5°C 55.4°F13.0°C 80% Calm Calm 1.6 mph2.6 kmh 30.17 in1021.7 mb 0.00 in0.0 mm 0.00 in/hr0.0 mm/hr 0.00 in0.0 mm
01:01 PM 62.6°F17.0°C 54.8°F12.7°C 76% Calm Calm 0.7 mph1.1 kmh 30.16 in1021.3 mb 0.00 in0.0 mm 0.00 in/hr0.0 mm/hr 0.00 in0.0 mm
01:16 PM 66.9°F19.4°C 56.2°F13.4°C 69% 0.7 mph ESE1.1 kmh ESE 3.1 mph5.0 kmh 30.16 in1021.3 mb 0.00 in0.0 mm 0.00 in/hr0.0 mm/hr 0.00 in0.0 mm
01:31 PM 72.9°F22.7°C 53.4°F11.9°C 52% 1.6 mph E2.6 kmh E 5.4 mph8.7 kmh 30.14 in1020.7 mb 0.00 in0.0 mm 0.00 in/hr0.0 mm/hr 0.00 in0.0 mm
01:46 PM 70.3°F21.3°C 54.8°F12.7°C 59% Calm Calm 4.5 mph7.2 kmh 30.13 in1020.3 mb 0.00 in0.0 mm 0.00 in/hr0.0 mm/hr 0.00 in0.0 mm
02:01 PM 72.5°F22.5°C 55.3°F12.9°C 56% 0.7 mph E1.1 kmh E 6.9 mph11.1 kmh 30.12 in1020.0 mb 0.00 in0.0 mm 0.00 in/hr0.0 mm/hr 0.00 in0.0 mm
02:16 PM 71.2°F21.8°C 54.1°F12.3°C 56% 0.7 mph SSE1.1 kmh SSE 3.8 mph6.1 kmh 30.12 in1020.0 mb 0.00 in0.0 mm 0.00 in/hr0.0 mm/hr 0.00 in0.0 mm
02:31 PM 67.6°F19.8°C 52.3°F11.3°C 59% 0.7 mph NW1.1 kmh NW 3.1 mph5.0 kmh 30.12 in1020.0 mb 0.00 in0.0 mm 0.00 in/hr0.0 mm/hr 0.00 in0.0 mm
02:46 PM 62.6°F17.0°C 54.4°F12.4°C 75% Calm Calm 3.8 mph6.1 kmh 30.13 in1020.3 mb 0.00 in0.0 mm 0.00 in/hr0.0 mm/hr 0.00 in0.0 mm
03:01 PM 65.3°F18.5°C 55.0°F12.8°C 70% Calm Calm 2.2 mph3.5 kmh 30.12 in1020.0 mb 0.00 in0.0 mm 0.00 in/hr0.0 mm/hr 0.00 in0.0 mm
03:16 PM 66.2°F19.0°C 53.7°F12.1°C 65% Calm Calm 2.2 mph3.5 kmh 30.11 in1019.6 mb 0.00 in0.0 mm 0.00 in/hr0.0 mm/hr 0.00 in0.0 mm
03:31 PM 64.6°F18.1°C 54.7°F12.6°C 71% Calm Calm 1.6 mph2.6 kmh 30.11 in1019.6 mb 0.00 in0.0 mm 0.00 in/hr0.0 mm/hr 0.00 in0.0 mm
03:46 PM 60.8°F16.0°C 53.4°F11.9°C 77% 0.7 mph W1.1 kmh W 3.1 mph5.0 kmh 30.12 in1020.0 mb 0.01 in0.3 mm 0.04 in/hr1.0 mm/hr 0.01 in0.3 mm
04:01 PM 60.3°F15.7°C 57.0°F13.9°C 89% Calm Calm 1.6 mph2.6 kmh 30.12 in1020.0 mb 0.01 in0.3 mm 0.00 in/hr0.0 mm/hr 0.01 in0.3 mm
04:16 PM 61.5°F16.4°C 55.9°F13.3°C 82% 0.7 mph W1.1 kmh W 3.1 mph5.0 kmh 30.12 in1020.0 mb 0.01 in0.3 mm 0.00 in/hr0.0 mm/hr 0.01 in0.3 mm
04:31 PM 59.7°F15.4°C 53.8°F12.1°C 81% 1.6 mph W2.6 kmh W 3.8 mph6.1 kmh 30.12 in1020.0 mb 0.01 in0.3 mm 0.00 in/hr0.0 mm/hr 0.01 in0.3 mm
04:46 PM 59.9°F15.5°C 52.9°F11.6°C 78% 1.6 mph W2.6 kmh W 5.4 mph8.7 kmh 30.12 in1020.0 mb 0.00 in0.0 mm 0.00 in/hr0.0 mm/hr 0.01 in0.3 mm
05:01 PM 60.3°F15.7°C 52.9°F11.6°C 77% 0.7 mph W1.1 kmh W 3.1 mph5.0 kmh 30.11 in1019.6 mb 0.00 in0.0 mm 0.00 in/hr0.0 mm/hr 0.01 in0.3 mm
05:31 PM 61.3°F16.3°C 51.2°F10.7°C 70% Calm Calm 1.6 mph2.6 kmh 30.11 in1019.6 mb 0.00 in0.0 mm 0.00 in/hr0.0 mm/hr 0.01 in0.3 mm
06:16 PM 62.6°F17.0°C 51.2°F10.7°C 67% Calm Calm 1.6 mph2.6 kmh 30.10 in1019.3 mb 0.00 in0.0 mm 0.00 in/hr0.0 mm/hr 0.01 in0.3 mm
06:31 PM 60.6°F15.9°C 51.0°F10.6°C 71% 3.1 mph W5.0 kmh W 6.0 mph9.7 kmh 30.13 in1020.3 mb 0.00 in0.0 mm 0.00 in/hr0.0 mm/hr 0.02 in0.5 mm
06:46 PM 54.1°F12.3°C 52.2°F11.2°C 93% 0.7 mph WNW1.1 kmh WNW 3.8 mph6.1 kmh 30.12 in1020.0 mb 0.02 in0.5 mm 0.08 in/hr2.0 mm/hr 0.04 in1.0 mm
07:01 PM 52.5°F11.4°C 52.2°F11.2°C 99% Calm Calm 2.2 mph3.5 kmh 30.11 in1019.6 mb 0.06 in1.5 mm 0.05 in/hr1.3 mm/hr 0.07 in1.8 mm
07:16 PM 52.0°F11.1°C 51.7°F10.9°C 99% Calm Calm 0.7 mph1.1 kmh 30.12 in1020.0 mb 0.06 in1.5 mm 0.00 in/hr0.0 mm/hr 0.07 in1.8 mm
07:31 PM 51.6°F10.9°C 51.3°F10.7°C 99% Calm Calm 1.6 mph2.6 kmh 30.12 in1020.0 mb 0.06 in1.5 mm 0.00 in/hr0.0 mm/hr 0.07 in1.8 mm
07:46 PM 51.4°F10.8°C 51.2°F10.7°C 99% Calm Calm 1.6 mph2.6 kmh 30.12 in1020.0 mb 0.04 in1.0 mm 0.00 in/hr0.0 mm/hr 0.07 in1.8 mm
08:01 PM 51.4°F10.8°C 51.2°F10.7°C 99% Calm Calm 0.7 mph1.1 kmh 30.11 in1019.6 mb 0.00 in0.0 mm 0.00 in/hr0.0 mm/hr 0.07 in1.8 mm
08:16 PM 51.1°F10.6°C 50.8°F10.4°C 99% Calm Calm 0.7 mph1.1 kmh 30.13 in1020.3 mb 0.00 in0.0 mm 0.00 in/hr0.0 mm/hr 0.07 in1.8 mm
08:31 PM 50.9°F10.5°C 50.6°F10.3°C 99% Calm Calm 0.7 mph1.1 kmh 30.14 in1020.7 mb 0.04 in1.0 mm 0.16 in/hr4.1 mm/hr 0.11 in2.8 mm
08:46 PM 50.7°F10.4°C 50.4°F10.2°C 99% Calm Calm 0.7 mph1.1 kmh 30.14 in1020.7 mb 0.04 in1.0 mm 0.00 in/hr0.0 mm/hr 0.11 in2.8 mm
09:01 PM 50.7°F10.4°C 50.4°F10.2°C 99% Calm Calm 0.7 mph1.1 kmh 30.14 in1020.7 mb 0.05 in1.3 mm 0.01 in/hr0.3 mm/hr 0.12 in3.0 mm
09:16 PM 50.7°F10.4°C 50.4°F10.2°C 99% Calm Calm 0.7 mph1.1 kmh 30.14 in1020.7 mb 0.05 in1.3 mm 0.00 in/hr0.0 mm/hr 0.12 in3.0 mm
09:31 PM 50.5°F10.3°C 50.3°F10.2°C 99% Calm Calm 0.7 mph1.1 kmh 30.15 in1021.0 mb 0.01 in0.3 mm 0.00 in/hr0.0 mm/hr 0.12 in3.0 mm
09:46 PM 50.2°F10.1°C 49.9°F9.9°C 99% Calm Calm 0.7 mph1.1 kmh 30.15 in1021.0 mb 0.01 in0.3 mm 0.00 in/hr0.0 mm/hr 0.12 in3.0 mm
10:01 PM 49.1°F9.5°C 48.8°F9.3°C 99% Calm Calm 1.6 mph2.6 kmh 30.15 in1021.0 mb 0.00 in0.0 mm 0.00 in/hr0.0 mm/hr 0.12 in3.0 mm
10:16 PM 48.4°F9.1°C 48.1°F8.9°C 99% Calm Calm 1.6 mph2.6 kmh 30.16 in1021.3 mb 0.00 in0.0 mm 0.00 in/hr0.0 mm/hr 0.12 in3.0 mm
10:31 PM 48.0°F8.9°C 47.8°F8.8°C 99% 0.7 mph W1.1 kmh W 2.2 mph3.5 kmh 30.15 in1021.0 mb 0.00 in0.0 mm 0.00 in/hr0.0 mm/hr 0.12 in3.0 mm
10:46 PM 47.8°F8.8°C 47.6°F8.7°C 99% 0.7 mph W1.1 kmh W 2.2 mph3.5 kmh 30.15 in1021.0 mb 0.00 in0.0 mm 0.00 in/hr0.0 mm/hr 0.12 in3.0 mm
11:01 PM 47.3°F8.5°C 47.0°F8.3°C 99% Calm Calm 1.6 mph2.6 kmh 30.15 in1021.0 mb 0.00 in0.0 mm 0.00 in/hr0.0 mm/hr 0.12 in3.0 mm
11:16 PM 46.8°F8.2°C 46.5°F8.1°C 99% Calm Calm 0.7 mph1.1 kmh 30.14 in1020.7 mb 0.00 in0.0 mm 0.00 in/hr0.0 mm/hr 0.12 in3.0 mm
11:31 PM 46.2°F7.9°C 46.0°F7.8°C 99% Calm Calm 0.7 mph1.1 kmh 30.14 in1020.7 mb 0.00 in0.0 mm 0.00 in/hr0.0 mm/hr 0.12 in3.0 mm
11:46 PM 46.0°F7.8°C 45.8°F7.7°C 99% Calm Calm 1.6 mph2.6 kmh 30.14 in1020.7 mb 0.00 in0.0 mm 0.00 in/hr0.0 mm/hr 0.12 in3.0 mm